sensor_id;sensor_type;location;lat;lon;timestamp;P1;durP1;ratioP1;P2;durP2;ratioP2
62121;SDS011;48108;47.532;19.084;2022-09-01T03:55:22;1.90;;;1.80;;
62121;SDS011;48108;47.532;19.084;2022-09-01T03:58:31;2.90;;;1.95;;
62121;SDS011;48108;47.532;19.084;2022-09-01T04:01:34;2.35;;;2.00;;
62121;SDS011;48108;47.532;19.084;2022-09-01T04:04:45;2.53;;;1.87;;
62121;SDS011;48108;47.532;19.084;2022-09-01T04:07:48;5.28;;;2.35;;
62121;SDS011;48108;47.532;19.084;2022-09-01T04:10:52;3.03;;;2.00;;
62121;SDS011;48108;47.532;19.084;2022-09-01T04:13:56;2.30;;;2.08;;
62121;SDS011;48108;47.532;19.084;2022-09-01T04:16:59;3.10;;;1.92;;
62121;SDS011;48108;47.532;19.084;2022-09-01T04:20:20;3.20;;;2.00;;
62121;SDS011;48108;47.532;19.084;2022-09-01T04:23:26;7.18;;;2.00;;
62121;SDS011;48108;47.532;19.084;2022-09-01T04:26:31;2.47;;;1.98;;
62121;SDS011;48108;47.532;19.084;2022-09-01T04:29:35;3.03;;;2.10;;
62121;SDS011;48108;47.532;19.084;2022-09-01T04:32:40;2.80;;;2.37;;
62121;SDS011;48108;47.532;19.084;2022-09-01T04:35:45;2.45;;;2.05;;
62121;SDS011;48108;47.532;19.084;2022-09-01T04:38:49;2.22;;;2.00;;
62121;SDS011;48108;47.532;19.084;2022-09-01T04:41:58;2.83;;;1.95;;
62121;SDS011;48108;47.532;19.084;2022-09-01T04:45:01;2.70;;;2.40;;
62121;SDS011;48108;47.532;19.084;2022-09-01T04:48:12;4.22;;;2.20;;
62121;SDS011;48108;47.532;19.084;2022-09-01T04:51:16;4.12;;;2.40;;
62121;SDS011;48108;47.532;19.084;2022-09-01T04:54:22;6.28;;;2.30;;
62121;SDS011;48108;47.532;19.084;2022-09-01T04:57:25;2.70;;;2.28;;
62121;SDS011;48108;47.532;19.084;2022-09-01T05:00:29;4.00;;;2.28;;
62121;SDS011;48108;47.532;19.084;2022-09-01T05:03:34;2.20;;;2.00;;
62121;SDS011;48108;47.532;19.084;2022-09-01T05:06:38;2.90;;;2.00;;
62121;SDS011;48108;47.532;19.084;2022-09-01T05:09:45;5.00;;;1.90;;
62121;SDS011;48108;47.532;19.084;2022-09-01T05:12:49;3.25;;;2.33;;
62121;SDS011;48108;47.532;19.084;2022-09-01T05:16:02;2.95;;;1.95;;
62121;SDS011;48108;47.532;19.084;2022-09-01T05:19:09;2.70;;;2.35;;
62121;SDS011;48108;47.532;19.084;2022-09-01T05:22:16;5.37;;;2.58;;
62121;SDS011;48108;47.532;19.084;2022-09-01T05:25:25;4.75;;;2.72;;
62121;SDS011;48108;47.532;19.084;2022-09-01T05:28:29;2.37;;;2.17;;
62121;SDS011;48108;47.532;19.084;2022-09-01T05:31:32;3.95;;;2.53;;
62121;SDS011;48108;47.532;19.084;2022-09-01T05:34:36;4.18;;;2.17;;
62121;SDS011;48108;47.532;19.084;2022-09-01T05:37:41;2.85;;;2.50;;
62121;SDS011;48108;47.532;19.084;2022-09-01T05:40:45;3.65;;;2.70;;
62121;SDS011;48108;47.532;19.084;2022-09-01T05:43:57;3.45;;;2.20;;
62121;SDS011;48108;47.532;19.084;2022-09-01T05:47:02;3.60;;;2.05;;
62121;SDS011;48108;47.532;19.084;2022-09-01T05:50:07;2.60;;;2.20;;
62121;SDS011;48108;47.532;19.084;2022-09-01T05:53:16;2.58;;;2.37;;
62121;SDS011;48108;47.532;19.084;2022-09-01T05:56:21;2.50;;;2.28;;
62121;SDS011;48108;47.532;19.084;2022-09-01T05:59:25;4.45;;;2.70;;
62121;SDS011;48108;47.532;19.084;2022-09-01T06:02:29;4.05;;;2.50;;
62121;SDS011;48108;47.532;19.084;2022-09-01T06:05:32;2.50;;;2.30;;
62121;SDS011;48108;47.532;19.084;2022-09-01T06:08:38;3.75;;;2.50;;
62121;SDS011;48108;47.532;19.084;2022-09-01T06:11:48;5.25;;;2.22;;
62121;SDS011;48108;47.532;19.084;2022-09-01T06:14:52;3.00;;;2.53;;
62121;SDS011;48108;47.532;19.084;2022-09-01T06:17:56;6.93;;;2.87;;
62121;SDS011;48108;47.532;19.084;2022-09-01T06:21:01;3.03;;;2.37;;
62121;SDS011;48108;47.532;19.084;2022-09-01T06:24:06;6.35;;;2.58;;
62121;SDS011;48108;47.532;19.084;2022-09-01T06:27:09;4.37;;;2.40;;
62121;SDS011;48108;47.532;19.084;2022-09-01T06:30:12;3.40;;;2.50;;
62121;SDS011;48108;47.532;19.084;2022-09-01T06:33:24;1.98;;;1.87;;
62121;SDS011;48108;47.532;19.084;2022-09-01T06:36:27;2.50;;;2.30;;
62121;SDS011;48108;47.532;19.084;2022-09-01T06:39:36;3.83;;;2.47;;
62121;SDS011;48108;47.532;19.084;2022-09-01T06:42:39;2.70;;;2.45;;
62121;SDS011;48108;47.532;19.084;2022-09-01T06:45:44;2.25;;;2.05;;
62121;SDS011;48108;47.532;19.084;2022-09-01T06:48:57;3.22;;;2.20;;
62121;SDS011;48108;47.532;19.084;2022-09-01T06:52:02;3.78;;;2.12;;
62121;SDS011;48108;47.532;19.084;2022-09-01T06:55:09;2.62;;;2.22;;
62121;SDS011;48108;47.532;19.084;2022-09-01T06:58:15;5.72;;;2.20;;
62121;SDS011;48108;47.532;19.084;2022-09-01T07:01:24;2.72;;;2.20;;
62121;SDS011;48108;47.532;19.084;2022-09-01T07:04:28;2.12;;;1.95;;
62121;SDS011;48108;47.532;19.084;2022-09-01T07:07:34;2.17;;;2.00;;
62121;SDS011;48108;47.532;19.084;2022-09-01T07:11:05;2.42;;;2.00;;
62121;SDS011;48108;47.532;19.084;2022-09-01T07:14:30;3.53;;;2.28;;
62121;SDS011;48108;47.532;19.084;2022-09-01T07:17:34;1.80;;;1.70;;
62121;SDS011;48108;47.532;19.084;2022-09-01T07:20:39;2.12;;;1.95;;
62121;SDS011;48108;47.532;19.084;2022-09-01T07:24:03;2.80;;;2.00;;
62121;SDS011;48108;47.532;19.084;2022-09-01T07:30:17;2.47;;;2.00;;
62121;SDS011;48108;47.532;19.084;2022-09-01T07:33:26;3.30;;;1.90;;
62121;SDS011;48108;47.532;19.084;2022-09-01T07:36:49;2.28;;;1.83;;
62121;SDS011;48108;47.532;19.084;2022-09-01T07:40:13;2.00;;;1.80;;
62121;SDS011;48108;47.532;19.084;2022-09-01T07:43:44;3.47;;;2.20;;
62121;SDS011;48108;47.532;19.084;2022-09-01T07:46:50;2.40;;;1.95;;
62121;SDS011;48108;47.532;19.084;2022-09-01T07:50:13;2.60;;;2.10;;
62121;SDS011;48108;47.532;19.084;2022-09-01T07:53:37;2.28;;;2.08;;
62121;SDS011;48108;47.532;19.084;2022-09-01T07:56:40;2.10;;;1.83;;
62121;SDS011;48108;47.532;19.084;2022-09-01T07:59:43;8.82;;;1.92;;
62121;SDS011;48108;47.532;19.084;2022-09-01T08:02:46;1.55;;;1.45;;
62121;SDS011;48108;47.532;19.084;2022-09-01T08:06:02;2.45;;;1.77;;
62121;SDS011;48108;47.532;19.084;2022-09-01T08:09:08;3.58;;;1.70;;
62121;SDS011;48108;47.532;19.084;2022-09-01T08:12:33;2.42;;;1.85;;
62121;SDS011;48108;47.532;19.084;2022-09-01T08:15:39;2.78;;;1.70;;
62121;SDS011;48108;47.532;19.084;2022-09-01T08:19:02;4.10;;;1.80;;
62121;SDS011;48108;47.532;19.084;2022-09-01T08:22:06;1.87;;;1.75;;
62121;SDS011;48108;47.532;19.084;2022-09-01T08:25:09;2.65;;;1.60;;
62121;SDS011;48108;47.532;19.084;2022-09-01T08:28:13;2.42;;;1.62;;
62121;SDS011;48108;47.532;19.084;2022-09-01T08:31:18;2.10;;;1.55;;
62121;SDS011;48108;47.532;19.084;2022-09-01T08:34:22;2.08;;;1.87;;
62121;SDS011;48108;47.532;19.084;2022-09-01T08:37:25;2.47;;;1.60;;
62121;SDS011;48108;47.532;19.084;2022-09-01T08:40:28;1.67;;;1.30;;
62121;SDS011;48108;47.532;19.084;2022-09-01T08:46:57;2.42;;;1.75;;
62121;SDS011;48108;47.532;19.084;2022-09-01T08:50:04;2.67;;;1.83;;
62121;SDS011;48108;47.532;19.084;2022-09-01T08:53:09;2.20;;;1.83;;
62121;SDS011;48108;47.532;19.084;2022-09-01T08:56:25;5.03;;;1.80;;
62121;SDS011;48108;47.532;19.084;2022-09-01T08:59:30;2.17;;;1.70;;
62121;SDS011;48108;47.532;19.084;2022-09-01T09:09:13;2.20;;;1.50;;
62121;SDS011;48108;47.532;19.084;2022-09-01T09:15:44;3.15;;;1.75;;
62121;SDS011;48108;47.532;19.084;2022-09-01T09:18:54;5.07;;;1.77;;
62121;SDS011;48108;47.532;19.084;2022-09-01T09:22:19;2.83;;;1.77;;
62121;SDS011;48108;47.532;19.084;2022-09-01T09:25:22;3.33;;;1.95;;
62121;SDS011;48108;47.532;19.084;2022-09-01T09:28:25;2.20;;;1.70;;
62121;SDS011;48108;47.532;19.084;2022-09-01T09:34:39;2.20;;;1.60;;
62121;SDS011;48108;47.532;19.084;2022-09-01T09:37:43;1.98;;;1.77;;
62121;SDS011;48108;47.532;19.084;2022-09-01T09:40:55;1.73;;;1.52;;
62121;SDS011;48108;47.532;19.084;2022-09-01T09:44:24;2.00;;;1.37;;
62121;SDS011;48108;47.532;19.084;2022-09-01T09:47:35;2.15;;;1.45;;
62121;SDS011;48108;47.532;19.084;2022-09-01T09:50:45;2.58;;;1.67;;
62121;SDS011;48108;47.532;19.084;2022-09-01T09:53:49;1.73;;;1.40;;
62121;SDS011;48108;47.532;19.084;2022-09-01T10:03:38;3.60;;;1.30;;
62121;SDS011;48108;47.532;19.084;2022-09-01T10:06:46;1.30;;;1.20;;
62121;SDS011;48108;47.532;19.084;2022-09-01T10:09:50;1.30;;;1.20;;
62121;SDS011;48108;47.532;19.084;2022-09-01T10:12:54;1.70;;;1.27;;
62121;SDS011;48108;47.532;19.084;2022-09-01T10:15:59;2.95;;;1.35;;
62121;SDS011;48108;47.532;19.084;2022-09-01T10:19:10;1.42;;;1.25;;
62121;SDS011;48108;47.532;19.084;2022-09-01T10:22:18;3.20;;;1.30;;
62121;SDS011;48108;47.532;19.084;2022-09-01T10:25:23;2.15;;;1.35;;
62121;SDS011;48108;47.532;19.084;2022-09-01T10:28:30;1.98;;;1.40;;
62121;SDS011;48108;47.532;19.084;2022-09-01T10:31:35;1.65;;;1.10;;
62121;SDS011;48108;47.532;19.084;2022-09-01T10:34:38;2.62;;;1.00;;
62121;SDS011;48108;47.532;19.084;2022-09-01T10:37:43;1.20;;;1.10;;
62121;SDS011;48108;47.532;19.084;2022-09-01T10:40:48;2.90;;;0.90;;
62121;SDS011;48108;47.532;19.084;2022-09-01T10:44:10;1.40;;;1.10;;
62121;SDS011;48108;47.532;19.084;2022-09-01T10:47:28;1.27;;;0.82;;
62121;SDS011;48108;47.532;19.084;2022-09-01T10:50:35;1.00;;;0.70;;
62121;SDS011;48108;47.532;19.084;2022-09-01T10:56:46;1.10;;;0.68;;
62121;SDS011;48108;47.532;19.084;2022-09-01T10:59:53;0.68;;;0.68;;
62121;SDS011;48108;47.532;19.084;2022-09-01T11:09:44;1.30;;;0.75;;
62121;SDS011;48108;47.532;19.084;2022-09-01T11:19:59;0.93;;;0.80;;
62121;SDS011;48108;47.532;19.084;2022-09-01T11:36:30;0.60;;;0.60;;
62121;SDS011;48108;47.532;19.084;2022-09-01T11:40:02;1.20;;;0.75;;
62121;SDS011;48108;47.532;19.084;2022-09-01T11:43:10;2.28;;;0.77;;
62121;SDS011;48108;47.532;19.084;2022-09-01T11:46:21;1.10;;;0.90;;
62121;SDS011;48108;47.532;19.084;2022-09-01T11:49:33;0.98;;;0.85;;
62121;SDS011;48108;47.532;19.084;2022-09-01T11:52:38;2.62;;;0.80;;
62121;SDS011;48108;47.532;19.084;2022-09-01T11:55:46;0.40;;;0.40;;
62121;SDS011;48108;47.532;19.084;2022-09-01T11:58:51;3.40;;;1.08;;
62121;SDS011;48108;47.532;19.084;2022-09-01T12:01:55;0.73;;;0.60;;
62121;SDS011;48108;47.532;19.084;2022-09-01T12:05:00;0.88;;;0.50;;
62121;SDS011;48108;47.532;19.084;2022-09-01T12:08:10;1.35;;;0.40;;
62121;SDS011;48108;47.532;19.084;2022-09-01T12:11:19;0.68;;;0.68;;
62121;SDS011;48108;47.532;19.084;2022-09-01T12:14:26;1.50;;;0.70;;
62121;SDS011;48108;47.532;19.084;2022-09-01T12:17:49;2.25;;;0.77;;
62121;SDS011;48108;47.532;19.084;2022-09-01T12:20:54;1.27;;;0.88;;
62121;SDS011;48108;47.532;19.084;2022-09-01T12:27:33;0.47;;;0.40;;
62121;SDS011;48108;47.532;19.084;2022-09-01T12:30:38;0.98;;;0.55;;
62121;SDS011;48108;47.532;19.084;2022-09-01T12:33:42;0.73;;;0.73;;
62121;SDS011;48108;47.532;19.084;2022-09-01T12:36:48;1.40;;;0.47;;
62121;SDS011;48108;47.532;19.084;2022-09-01T12:40:05;0.30;;;0.30;;
62121;SDS011;48108;47.532;19.084;2022-09-01T12:46:39;5.15;;;0.70;;
62121;SDS011;48108;47.532;19.084;2022-09-01T12:49:45;1.37;;;0.50;;
62121;SDS011;48108;47.532;19.084;2022-09-01T12:52:55;0.50;;;0.40;;
62121;SDS011;48108;47.532;19.084;2022-09-01T12:56:20;1.40;;;0.40;;
62121;SDS011;48108;47.532;19.084;2022-09-01T12:59:29;1.15;;;0.70;;
62121;SDS011;48108;47.532;19.084;2022-09-01T13:02:43;1.05;;;0.60;;
62121;SDS011;48108;47.532;19.084;2022-09-01T13:05:52;1.98;;;0.45;;
62121;SDS011;48108;47.532;19.084;2022-09-01T13:08:56;0.70;;;0.70;;
62121;SDS011;48108;47.532;19.084;2022-09-01T13:12:10;0.82;;;0.82;;
62121;SDS011;48108;47.532;19.084;2022-09-01T13:15:17;2.62;;;0.80;;
62121;SDS011;48108;47.532;19.084;2022-09-01T13:18:21;2.37;;;0.70;;
62121;SDS011;48108;47.532;19.084;2022-09-01T13:21:30;0.95;;;0.40;;
62121;SDS011;48108;47.532;19.084;2022-09-01T13:24:33;3.40;;;0.68;;
62121;SDS011;48108;47.532;19.084;2022-09-01T13:27:36;0.60;;;0.60;;
62121;SDS011;48108;47.532;19.084;2022-09-01T13:30:39;2.85;;;0.60;;
62121;SDS011;48108;47.532;19.084;2022-09-01T13:33:42;0.82;;;0.47;;
62121;SDS011;48108;47.532;19.084;2022-09-01T13:37:05;0.60;;;0.60;;
62121;SDS011;48108;47.532;19.084;2022-09-01T13:40:08;1.65;;;0.50;;
62121;SDS011;48108;47.532;19.084;2022-09-01T13:43:21;0.70;;;0.57;;
62121;SDS011;48108;47.532;19.084;2022-09-01T13:46:25;0.85;;;0.60;;
62121;SDS011;48108;47.532;19.084;2022-09-01T13:49:27;1.75;;;0.70;;
62121;SDS011;48108;47.532;19.084;2022-09-01T13:52:51;1.17;;;0.65;;
62121;SDS011;48108;47.532;19.084;2022-09-01T13:55:56;0.70;;;0.50;;
62121;SDS011;48108;47.532;19.084;2022-09-01T13:59:04;2.20;;;0.50;;
62121;SDS011;48108;47.532;19.084;2022-09-01T14:02:07;1.20;;;0.50;;
62121;SDS011;48108;47.532;19.084;2022-09-01T14:05:10;1.80;;;0.60;;
62121;SDS011;48108;47.532;19.084;2022-09-01T14:08:14;2.17;;;0.60;;
62121;SDS011;48108;47.532;19.084;2022-09-01T14:11:18;0.47;;;0.47;;
62121;SDS011;48108;47.532;19.084;2022-09-01T14:14:21;2.00;;;0.68;;
62121;SDS011;48108;47.532;19.084;2022-09-01T14:17:24;0.88;;;0.57;;
62121;SDS011;48108;47.532;19.084;2022-09-01T14:20:28;1.23;;;0.75;;
62121;SDS011;48108;47.532;19.084;2022-09-01T14:23:38;3.20;;;0.73;;
62121;SDS011;48108;47.532;19.084;2022-09-01T14:26:41;1.50;;;0.70;;
62121;SDS011;48108;47.532;19.084;2022-09-01T14:29:49;3.08;;;0.60;;
62121;SDS011;48108;47.532;19.084;2022-09-01T14:32:56;0.93;;;0.80;;
62121;SDS011;48108;47.532;19.084;2022-09-01T14:36:00;1.05;;;0.70;;
62121;SDS011;48108;47.532;19.084;2022-09-01T14:39:04;0.80;;;0.77;;
62121;SDS011;48108;47.532;19.084;2022-09-01T14:42:07;0.70;;;0.70;;
62121;SDS011;48108;47.532;19.084;2022-09-01T14:45:23;3.62;;;1.02;;
62121;SDS011;48108;47.532;19.084;2022-09-01T14:48:28;1.67;;;0.77;;
62121;SDS011;48108;47.532;19.084;2022-09-01T14:51:31;0.52;;;0.50;;
62121;SDS011;48108;47.532;19.084;2022-09-01T14:54:55;2.58;;;0.90;;
62121;SDS011;48108;47.532;19.084;2022-09-01T14:57:59;2.45;;;0.80;;
62121;SDS011;48108;47.532;19.084;2022-09-01T15:01:02;0.62;;;0.55;;
62121;SDS011;48108;47.532;19.084;2022-09-01T15:04:25;0.90;;;0.70;;
62121;SDS011;48108;47.532;19.084;2022-09-01T15:07:29;0.75;;;0.70;;
62121;SDS011;48108;47.532;19.084;2022-09-01T15:10:32;0.60;;;0.60;;
62121;SDS011;48108;47.532;19.084;2022-09-01T15:13:35;0.60;;;0.52;;
62121;SDS011;48108;47.532;19.084;2022-09-01T15:16:39;0.82;;;0.57;;
62121;SDS011;48108;47.532;19.084;2022-09-01T15:19:43;1.40;;;0.75;;
62121;SDS011;48108;47.532;19.084;2022-09-01T15:22:47;0.75;;;0.73;;
62121;SDS011;48108;47.532;19.084;2022-09-01T15:25:52;0.70;;;0.70;;
62121;SDS011;48108;47.532;19.084;2022-09-01T15:28:56;1.17;;;0.57;;
62121;SDS011;48108;47.532;19.084;2022-09-01T15:32:00;1.05;;;0.80;;
62121;SDS011;48108;47.532;19.084;2022-09-01T15:35:04;0.57;;;0.57;;
62121;SDS011;48108;47.532;19.084;2022-09-01T15:38:07;1.80;;;0.80;;
62121;SDS011;48108;47.532;19.084;2022-09-01T15:41:17;1.95;;;0.80;;
62121;SDS011;48108;47.532;19.084;2022-09-01T15:44:22;0.60;;;0.60;;
62121;SDS011;48108;47.532;19.084;2022-09-01T15:47:25;0.80;;;0.70;;
62121;SDS011;48108;47.532;19.084;2022-09-01T15:50:28;1.00;;;0.70;;
62121;SDS011;48108;47.532;19.084;2022-09-01T15:53:30;0.52;;;0.52;;
62121;SDS011;48108;47.532;19.084;2022-09-01T15:56:33;1.12;;;0.70;;
62121;SDS011;48108;47.532;19.084;2022-09-01T15:59:36;1.92;;;1.05;;
62121;SDS011;48108;47.532;19.084;2022-09-01T16:02:41;1.52;;;0.93;;
62121;SDS011;48108;47.532;19.084;2022-09-01T16:05:44;0.73;;;0.68;;
62121;SDS011;48108;47.532;19.084;2022-09-01T16:08:47;0.88;;;0.70;;
62121;SDS011;48108;47.532;19.084;2022-09-01T16:11:52;1.33;;;0.88;;
62121;SDS011;48108;47.532;19.084;2022-09-01T16:14:55;0.82;;;0.73;;
62121;SDS011;48108;47.532;19.084;2022-09-01T16:21:28;1.52;;;0.68;;
62121;SDS011;48108;47.532;19.084;2022-09-01T16:24:45;0.60;;;0.60;;
62121;SDS011;48108;47.532;19.084;2022-09-01T16:27:49;0.98;;;0.90;;
62121;SDS011;48108;47.532;19.084;2022-09-01T16:30:53;2.33;;;0.82;;
62121;SDS011;48108;47.532;19.084;2022-09-01T16:34:04;0.80;;;0.73;;
62121;SDS011;48108;47.532;19.084;2022-09-01T16:40:43;1.33;;;0.90;;
62121;SDS011;48108;47.532;19.084;2022-09-01T17:00:18;2.62;;;1.10;;
